Time;durP1;ratioP1;P1;durP2;ratioP2;P2;SDS_P1;SDS_P2;PMS_P1;PMS_P2;Temp;Humidity;BMP_temperature;BMP_pressure;BME280_temperature;BME280_humidity;BME280_pressure;Samples;Min_cycle;Max_cycle;Signal;HPM_P1;HPM_P2
2021/05/01 00:00:48;;;;;;;13.30;8.48;;;;;;;10.81;38.29;100992.63;3543202;40;20050;-74
2021/05/01 00:03:16;;;;;;;11.85;8.27;;;;;;;10.79;38.50;100986.44;3539274;40;20051;-73
2021/05/01 00:05:43;;;;;;;12.55;8.27;;;;;;;10.78;38.70;100991.03;3542305;40;20082;-74
2021/05/01 00:08:11;;;;;;;13.73;8.90;;;;;;;10.79;38.45;100991.91;3540114;40;20308;-74
2021/05/01 00:10:38;;;;;;;11.32;7.95;;;;;;;10.76;38.30;100992.19;3542509;40;20416;-74
2021/05/01 00:13:07;;;;;;;12.80;9.30;;;;;;;10.75;38.41;100988.56;3544451;40;20056;-74
2021/05/01 00:15:35;;;;;;;14.43;9.63;;;;;;;10.75;38.62;100987.69;3541449;40;20057;-74
2021/05/01 00:18:02;;;;;;;15.20;9.95;;;;;;;10.74;38.45;100994.16;3538163;40;20055;-74
2021/05/01 00:20:30;;;;;;;12.98;8.50;;;;;;;10.72;38.51;100987.94;3544332;40;20077;-73
2021/05/01 00:22:58;;;;;;;12.85;9.15;;;;;;;10.72;38.43;100996.16;3535857;40;20064;-74
2021/05/01 00:25:26;;;;;;;13.55;8.98;;;;;;;10.73;38.49;100992.44;3543610;40;20388;-73
2021/05/01 00:27:53;;;;;;;12.13;8.70;;;;;;;10.71;38.36;100992.56;3538586;40;20070;-74
2021/05/01 00:30:21;;;;;;;13.27;8.75;;;;;;;10.69;38.33;100983.63;3539013;40;20409;-73
2021/05/01 00:32:48;;;;;;;13.23;8.18;;;;;;;10.68;38.33;100987.34;3540607;40;20497;-74
2021/05/01 00:35:16;;;;;;;13.07;8.57;;;;;;;10.68;38.33;100989.22;3541235;40;20054;-74
2021/05/01 00:37:43;;;;;;;12.85;9.05;;;;;;;10.67;38.27;100982.88;3540333;40;20046;-74
2021/05/01 00:40:12;;;;;;;13.45;8.32;;;;;;;10.67;38.27;100990.22;3537507;40;20148;-74
2021/05/01 00:42:40;;;;;;;13.18;8.93;;;;;;;10.65;38.38;100993.06;3528386;40;20067;-74
2021/05/01 00:45:08;;;;;;;12.10;8.77;;;;;;;10.64;38.17;100980.41;3544802;40;20046;-74
2021/05/01 00:47:36;;;;;;;14.73;9.30;;;;;;;10.64;38.43;100985.00;3547435;40;20094;-73
2021/05/01 00:50:05;;;;;;;13.93;9.57;;;;;;;10.63;38.02;100984.13;3538257;40;20059;-75
2021/05/01 00:52:34;;;;;;;13.05;8.73;;;;;;;10.61;38.40;100983.41;3541760;40;20314;-73
2021/05/01 00:55:04;;;;;;;13.73;9.60;;;;;;;10.61;38.62;100982.53;3532503;40;20065;-74
2021/05/01 00:57:36;;;;;;;15.88;10.27;;;;;;;10.58;38.40;100977.31;3543143;40;20073;-73
2021/05/01 01:00:07;;;;;;;13.98;9.95;;;;;;;10.58;38.52;100983.66;3536946;40;20331;-74
2021/05/01 01:02:36;;;;;;;16.10;10.65;;;;;;;10.56;38.54;100980.19;3538540;40;20061;-74
2021/05/01 01:05:04;;;;;;;17.85;11.75;;;;;;;10.54;38.48;100988.50;3535858;40;20266;-74
2021/05/01 01:07:32;;;;;;;17.77;11.73;;;;;;;10.53;38.66;100985.94;3543070;40;20082;-73
2021/05/01 01:09:59;;;;;;;21.05;13.68;;;;;;;10.51;38.70;100982.44;3542391;40;20047;-74
2021/05/01 01:12:26;;;;;;;18.58;12.50;;;;;;;10.51;38.70;100983.31;3547398;40;20058;-74
2021/05/01 01:14:57;;;;;;;17.05;12.10;;;;;;;10.52;38.88;100984.19;3541631;40;20273;-74
2021/05/01 01:17:26;;;;;;;19.63;12.73;;;;;;;10.50;38.81;100983.44;3544303;40;20082;-73
2021/05/01 01:19:53;;;;;;;18.45;12.73;;;;;;;10.48;38.81;100980.81;3541953;40;20082;-74
2021/05/01 01:22:21;;;;;;;18.52;12.57;;;;;;;10.48;39.00;100978.09;3542449;40;20051;-74
2021/05/01 01:24:48;;;;;;;18.77;12.80;;;;;;;10.46;38.98;100979.19;3537650;40;20077;-74
2021/05/01 01:27:16;;;;;;;19.42;13.65;;;;;;;10.45;39.07;100978.34;3544078;40;20407;-74
2021/05/01 01:29:43;;;;;;;19.02;13.55;;;;;;;10.45;39.18;100982.97;3536996;40;20057;-74
2021/05/01 01:32:12;;;;;;;20.45;13.95;;;;;;;10.44;39.18;100973.88;3540259;40;20072;-73
2021/05/01 01:34:42;;;;;;;20.17;14.23;;;;;;;10.42;39.31;100975.88;3540011;40;20148;-74
2021/05/01 01:37:10;;;;;;;22.58;15.27;;;;;;;10.41;39.19;100985.06;3541512;40;20051;-74
2021/05/01 01:39:39;;;;;;;19.48;13.32;;;;;;;10.41;39.50;100984.19;3544451;40;20111;-73
2021/05/01 01:42:10;;;;;;;17.08;12.55;;;;;;;10.38;39.14;100985.31;3539425;40;20492;-74
2021/05/01 01:44:38;;;;;;;19.00;13.10;;;;;;;10.37;39.16;100988.22;3541198;40;20090;-74
2021/05/01 01:47:05;;;;;;;17.23;11.40;;;;;;;10.35;39.30;100982.88;3541850;40;20079;-74
2021/05/01 01:49:34;;;;;;;19.05;12.88;;;;;;;10.33;39.15;100981.25;3542238;40;20382;-74
2021/05/01 01:52:01;;;;;;;16.38;11.50;;;;;;;10.30;39.22;100967.81;3540963;40;20068;-74
2021/05/01 01:54:29;;;;;;;18.25;12.32;;;;;;;10.27;39.27;100979.91;3537253;40;20047;-74
2021/05/01 01:56:59;;;;;;;17.35;11.80;;;;;;;10.26;39.30;100983.63;3542474;40;20054;-74
2021/05/01 01:59:27;;;;;;;17.58;12.70;;;;;;;10.23;39.12;100985.72;3542787;40;20989;-74
2021/05/01 02:01:55;;;;;;;18.10;12.82;;;;;;;10.20;39.39;100975.06;3542343;40;20043;-74
2021/05/01 02:04:22;;;;;;;17.83;11.38;;;;;;;10.17;39.61;100972.56;3538271;40;20043;-74
2021/05/01 02:06:50;;;;;;;17.15;11.88;;;;;;;10.14;39.35;100974.56;3538972;40;20058;-74
2021/05/01 02:09:17;;;;;;;17.33;11.68;;;;;;;10.12;39.38;100978.44;3544034;40;20055;-74
2021/05/01 02:11:46;;;;;;;18.13;13.23;;;;;;;10.09;39.22;100981.41;3534760;40;20083;-74
2021/05/01 02:14:14;;;;;;;21.85;13.20;;;;;;;10.06;39.52;100981.66;3539618;40;20058;-74
2021/05/01 02:16:41;;;;;;;18.75;12.38;;;;;;;10.02;39.55;100989.25;3530682;40;20051;-74
2021/05/01 02:19:08;;;;;;;20.73;13.75;;;;;;;9.98;39.58;100982.28;3537850;40;20094;-74
2021/05/01 02:21:36;;;;;;;19.25;13.52;;;;;;;9.95;39.49;100988.03;3539458;40;20058;-74
2021/05/01 02:24:04;;;;;;;18.65;12.65;;;;;;;9.92;39.60;100992.84;3536010;40;20068;-74
2021/05/01 02:26:31;;;;;;;20.63;13.70;;;;;;;9.88;39.65;100981.28;3543183;40;20133;-74
2021/05/01 02:28:58;;;;;;;22.05;14.50;;;;;;;9.85;39.58;100983.44;3538979;40;20087;-73
2021/05/01 02:31:26;;;;;;;19.75;13.70;;;;;;;9.83;39.73;100980.81;3543419;40;20061;-74
2021/05/01 02:33:54;;;;;;;20.30;13.95;;;;;;;9.79;39.73;100982.06;3539567;40;20039;-74
2021/05/01 02:36:21;;;;;;;19.45;13.75;;;;;;;9.74;39.76;100979.69;3543768;40;20061;-74
2021/05/01 02:38:48;;;;;;;20.52;14.27;;;;;;;9.71;39.81;100969.00;3543474;40;20067;-74
2021/05/01 02:41:16;;;;;;;20.20;15.30;;;;;;;9.69;39.90;100978.34;3542693;40;20058;-74
2021/05/01 02:43:43;;;;;;;22.75;13.98;;;;;;;9.66;40.00;100967.63;3544293;40;20077;-74
2021/05/01 02:46:11;;;;;;;21.73;14.05;;;;;;;9.63;39.92;100967.88;3544900;40;20066;-74
2021/05/01 02:48:39;;;;;;;21.45;14.40;;;;;;;9.61;40.08;100972.59;3542989;40;20451;-74
2021/05/01 02:51:06;;;;;;;22.00;14.32;;;;;;;9.55;40.10;100964.88;3546427;40;20106;-74
2021/05/01 02:53:34;;;;;;;19.52;13.80;;;;;;;9.51;40.03;100964.25;3543513;40;20312;-74
2021/05/01 02:56:01;;;;;;;21.05;13.75;;;;;;;9.49;40.15;100968.09;3544825;40;20551;-74
2021/05/01 02:58:29;;;;;;;22.00;13.85;;;;;;;9.45;40.05;100962.03;3545661;40;20062;-73
2021/05/01 03:00:56;;;;;;;21.80;14.45;;;;;;;9.43;40.18;100963.13;3542402;40;20057;-74
2021/05/01 03:03:24;;;;;;;21.52;15.57;;;;;;;9.40;40.19;100966.97;3540918;40;20031;-72
2021/05/01 03:05:52;;;;;;;22.02;14.57;;;;;;;9.37;40.20;100957.19;3535565;40;20074;-74
2021/05/01 03:08:19;;;;;;;21.08;14.43;;;;;;;9.34;40.17;100956.56;3540600;40;20090;-74
2021/05/01 03:10:46;;;;;;;22.23;14.10;;;;;;;9.30;40.35;100952.34;3540943;40;20078;-73
2021/05/01 03:13:13;;;;;;;20.70;14.02;;;;;;;9.27;40.26;100948.00;3545160;40;20050;-74
2021/05/01 03:15:41;;;;;;;21.67;14.20;;;;;;;9.23;40.20;100946.47;3542417;40;20114;-74
2021/05/01 03:18:09;;;;;;;22.73;15.48;;;;;;;9.20;40.34;100960.38;3551327;40;20073;-74
2021/05/01 03:20:37;;;;;;;22.48;14.90;;;;;;;9.17;40.38;100955.16;3546001;40;20364;-74
2021/05/01 03:23:07;;;;;;;24.38;15.57;;;;;;;9.16;40.56;100963.47;3535647;40;20144;-74
2021/05/01 03:25:37;;;;;;;21.75;14.15;;;;;;;9.14;41.04;100963.56;3542924;40;20058;-74
2021/05/01 03:28:05;;;;;;;21.73;14.88;;;;;;;9.11;40.76;100950.19;3545000;40;20054;-73
2021/05/01 03:30:33;;;;;;;23.08;15.18;;;;;;;9.12;40.84;100956.53;3540704;40;20059;-74
2021/05/01 03:33:00;;;;;;;22.40;14.27;;;;;;;9.10;40.90;100959.38;3542765;40;20397;-74
2021/05/01 03:35:28;;;;;;;23.25;15.52;;;;;;;9.09;40.71;100963.09;3544144;40;20510;-74
2021/05/01 03:37:57;;;;;;;24.33;15.60;;;;;;;9.09;40.79;100965.81;3546738;40;20086;-74
2021/05/01 03:40:25;;;;;;;22.58;15.20;;;;;;;9.09;41.04;100956.75;3544033;40;20062;-74
2021/05/01 03:42:53;;;;;;;22.70;14.55;;;;;;;9.09;40.95;100962.22;3550700;40;20052;-73
2021/05/01 03:45:20;;;;;;;21.73;14.98;;;;;;;9.08;41.07;100961.34;3540603;40;20066;-73
2021/05/01 03:47:47;;;;;;;23.05;14.98;;;;;;;9.08;41.14;100963.19;3539443;40;20039;-73
2021/05/01 03:50:15;;;;;;;21.42;14.57;;;;;;;9.07;40.95;100962.31;3542470;40;20077;-73
2021/05/01 03:52:42;;;;;;;24.02;14.73;;;;;;;9.07;41.07;100967.78;3541502;40;20055;-73
2021/05/01 03:55:10;;;;;;;21.15;14.18;;;;;;;9.09;41.13;100967.66;3542637;40;20062;-73
2021/05/01 03:57:51;;;;;;;23.95;15.20;;;;;;;9.08;41.33;100974.97;3542301;40;20046;-73
2021/05/01 04:00:18;;;;;;;24.10;14.80;;;;;;;9.08;40.93;100969.53;3539786;40;20152;-73
2021/05/01 04:02:46;;;;;;;22.42;14.60;;;;;;;9.07;41.00;100967.78;3537723;40;20451;-73
2021/05/01 04:05:19;;;;;;;22.20;14.68;;;;;;;9.05;41.01;100972.50;3541844;40;20050;-73
2021/05/01 04:07:47;;;;;;;24.17;15.50;;;;;;;9.08;40.93;100969.53;3543600;40;20085;-73
2021/05/01 04:10:15;;;;;;;22.08;14.55;;;;;;;9.08;40.93;100974.13;3542826;40;20494;-73
2021/05/01 04:12:58;;;;;;;21.83;14.70;;;;;;;9.09;40.93;100975.84;3536730;40;20272;-73
2021/05/01 04:15:28;;;;;;;21.92;14.35;;;;;;;9.07;41.03;100980.56;3540151;40;20411;-72
2021/05/01 04:18:09;;;;;;;21.27;14.15;;;;;;;9.07;40.86;100977.81;3540901;40;20070;-74
2021/05/01 04:20:37;;;;;;;22.05;14.52;;;;;;;9.04;40.76;100976.22;3537896;40;20058;-74
2021/05/01 04:23:04;;;;;;;21.83;14.38;;;;;;;9.04;40.73;100986.28;3543328;40;20070;-74
2021/05/01 04:25:32;;;;;;;19.55;12.98;;;;;;;9.03;40.61;100984.53;3542059;40;20058;-74
2021/05/01 04:28:00;;;;;;;20.92;13.65;;;;;;;9.03;40.62;100990.84;3540575;40;20063;-74
2021/05/01 04:30:27;;;;;;;18.73;14.05;;;;;;;9.00;40.63;100988.34;3542081;40;20062;-74
2021/05/01 04:32:54;;;;;;;20.02;13.18;;;;;;;8.98;40.36;100987.59;3537121;40;20051;-74
2021/05/01 04:35:23;;;;;;;19.25;12.95;;;;;;;8.96;40.61;100989.59;3538947;40;20487;-74
2021/05/01 04:37:50;;;;;;;19.58;12.90;;;;;;;8.95;40.64;100991.47;3540147;40;20452;-74
2021/05/01 04:40:18;;;;;;;17.23;12.35;;;;;;;8.94;40.58;100994.28;3538243;40;20395;-74
2021/05/01 04:42:48;;;;;;;20.63;13.07;;;;;;;8.93;40.61;100996.16;3542528;40;20086;-74
2021/05/01 04:45:17;;;;;;;16.98;11.43;;;;;;;8.93;40.62;101001.59;3542250;40;20054;-74
2021/05/01 04:47:45;;;;;;;17.27;11.80;;;;;;;8.91;40.61;101002.69;3541474;40;20354;-74
2021/05/01 04:50:14;;;;;;;17.52;12.15;;;;;;;8.93;40.54;101006.19;3543865;40;20082;-74
2021/05/01 04:52:42;;;;;;;20.00;12.60;;;;;;;8.90;40.57;101006.41;3540075;40;20054;-74
2021/05/01 04:55:13;;;;;;;17.67;12.00;;;;;;;8.90;40.64;101012.75;3543131;40;20062;-74
2021/05/01 04:57:42;;;;;;;19.48;13.07;;;;;;;8.90;40.30;101007.28;3543420;40;20054;-74
2021/05/01 05:00:11;;;;;;;18.92;12.75;;;;;;;8.90;40.67;101018.19;3541403;40;20165;-74
2021/05/01 05:02:39;;;;;;;17.60;12.05;;;;;;;8.91;40.68;101008.16;3536040;40;20070;-74
2021/05/01 05:05:08;;;;;;;17.08;12.15;;;;;;;8.90;40.77;101014.59;3540392;40;20411;-74
2021/05/01 05:07:36;;;;;;;16.45;11.93;;;;;;;8.89;40.94;101011.00;3542399;40;20062;-74
2021/05/01 05:10:04;;;;;;;17.92;12.75;;;;;;;8.91;40.81;101016.34;3535761;40;20075;-74
2021/05/01 05:12:33;;;;;;;17.95;12.48;;;;;;;8.92;40.73;101013.50;3540254;40;20674;-74
2021/05/01 05:15:01;;;;;;;19.60;12.82;;;;;;;8.93;40.62;101015.25;3542845;40;20066;-74
2021/05/01 05:17:28;;;;;;;17.95;12.15;;;;;;;8.96;40.90;101020.47;3537397;40;20058;-74
2021/05/01 05:19:56;;;;;;;19.77;12.85;;;;;;;9.01;41.34;101026.44;3544980;40;20047;-74
2021/05/01 05:22:24;;;;;;;19.80;12.23;;;;;;;9.07;41.54;101016.91;3540880;40;20046;-74
2021/05/01 05:24:51;;;;;;;18.60;12.43;;;;;;;9.17;41.82;101026.13;3545233;40;20161;-74
2021/05/01 05:27:20;;;;;;;19.27;13.15;;;;;;;9.29;42.00;101030.63;3537726;40;20050;-74
2021/05/01 05:29:50;;;;;;;19.23;12.55;;;;;;;9.44;42.12;101030.41;3543920;40;20065;-74
2021/05/01 05:32:19;;;;;;;19.90;12.88;;;;;;;9.61;42.19;101033.56;3539800;40;20400;-74
2021/05/01 05:34:47;;;;;;;18.67;12.13;;;;;;;9.79;41.99;101030.38;3537816;40;20137;-74
2021/05/01 05:37:16;;;;;;;17.23;12.45;;;;;;;9.98;41.69;101039.69;3544427;40;20046;-74
2021/05/01 05:39:47;;;;;;;15.32;12.02;;;;;;;10.14;41.46;101036.56;3540198;40;20148;-74
2021/05/01 05:42:20;;;;;;;16.42;11.15;;;;;;;10.31;41.04;101043.38;3538616;40;20137;-74
2021/05/01 05:44:50;;;;;;;15.88;11.77;;;;;;;10.43;40.63;101040.53;3543891;40;20054;-74
2021/05/01 05:47:18;;;;;;;18.60;12.00;;;;;;;10.53;40.69;101038.72;3542183;40;20054;-74
2021/05/01 05:49:46;;;;;;;19.17;13.48;;;;;;;10.64;40.36;101029.63;3544546;40;20133;-74
2021/05/01 05:52:14;;;;;;;17.00;12.77;;;;;;;10.72;39.92;101032.59;3541590;40;20086;-74
2021/05/01 05:54:43;;;;;;;20.45;12.93;;;;;;;10.79;39.87;101035.69;3541771;40;20501;-74
2021/05/01 05:57:11;;;;;;;18.50;13.02;;;;;;;10.85;39.69;101038.81;3541868;40;20053;-74
2021/05/01 05:59:40;;;;;;;20.33;13.73;;;;;;;10.90;39.27;101041.16;3545495;40;20083;-74
2021/05/01 06:02:11;;;;;;;18.60;13.38;;;;;;;10.95;39.77;101033.41;3537015;40;20054;-74
2021/05/01 06:04:45;;;;;;;20.13;13.52;;;;;;;10.98;39.30;101032.28;3537823;40;20063;-74
2021/05/01 06:07:18;;;;;;;16.73;11.95;;;;;;;11.01;39.21;101029.31;3539201;40;20644;-74
2021/05/01 06:09:47;;;;;;;18.73;12.18;;;;;;;11.05;39.17;101025.28;3542403;40;20073;-74
2021/05/01 06:12:19;;;;;;;18.45;13.13;;;;;;;11.10;38.92;101029.38;3539422;40;20042;-74
2021/05/01 06:14:47;;;;;;;19.55;11.98;;;;;;;11.13;39.13;101028.22;3537680;40;20058;-73
2021/05/01 06:17:17;;;;;;;15.48;11.35;;;;;;;11.21;39.18;101022.97;3541219;40;20387;-74
2021/05/01 06:19:49;;;;;;;15.55;10.90;;;;;;;11.28;39.24;101030.50;3538657;40;20148;-74
2021/05/01 06:22:18;;;;;;;16.08;11.05;;;;;;;11.39;39.37;101021.38;3540007;40;20087;-69
2021/05/01 06:24:47;;;;;;;14.23;10.25;;;;;;;11.49;39.27;101016.84;3542420;40;20062;-70
2021/05/01 06:27:17;;;;;;;16.35;11.20;;;;;;;11.64;38.89;101031.03;3542132;40;20053;-70
2021/05/01 06:29:45;;;;;;;16.20;11.20;;;;;;;11.76;39.32;101024.50;3534461;40;20066;-70
2021/05/01 06:32:14;;;;;;;16.52;11.15;;;;;;;11.93;39.05;101018.41;3538632;40;20046;-70
2021/05/01 06:34:47;;;;;;;14.73;10.90;;;;;;;12.18;38.99;101019.81;3536772;40;20082;-73
2021/05/01 06:37:16;;;;;;;15.45;10.50;;;;;;;12.47;39.30;101019.88;3542010;40;20057;-73
2021/05/01 06:39:46;;;;;;;16.13;10.68;;;;;;;12.86;38.88;101018.06;3534315;40;20053;-74
2021/05/01 06:42:18;;;;;;;14.18;10.73;;;;;;;13.28;37.99;101020.53;3542620;40;20415;-74
2021/05/01 06:44:50;;;;;;;14.13;10.43;;;;;;;13.71;37.77;101012.66;3540915;40;20066;-74
2021/05/01 06:47:24;;;;;;;13.95;10.70;;;;;;;14.08;36.99;101018.19;3542229;40;20062;-74
2021/05/01 06:49:54;;;;;;;13.57;10.70;;;;;;;14.39;37.35;101027.03;3539919;40;20042;-74
2021/05/01 06:52:23;;;;;;;14.93;11.75;;;;;;;14.63;37.09;101023.69;3542262;40;20080;-74
2021/05/01 06:54:52;;;;;;;15.50;10.55;;;;;;;14.86;36.08;101011.25;3539180;40;20070;-76
2021/05/01 06:57:24;;;;;;;13.85;10.52;;;;;;;15.02;35.10;101018.78;3538218;40;20039;-72
2021/05/01 06:59:54;;;;;;;14.53;11.13;;;;;;;15.09;34.71;101030.03;3545481;40;20315;-74
2021/05/01 07:02:28;;;;;;;14.57;10.18;;;;;;;15.18;33.63;101024.47;3540196;40;20054;-72
2021/05/01 07:04:58;;;;;;;12.07;9.30;;;;;;;15.19;34.03;101028.94;3538831;40;20062;-72
2021/05/01 07:07:28;;;;;;;13.40;9.88;;;;;;;15.21;33.88;101026.03;3545049;40;20050;-72
2021/05/01 07:09:57;;;;;;;14.00;10.30;;;;;;;15.21;33.56;101028.78;3540328;40;20051;-73
2021/05/01 07:12:25;;;;;;;14.60;10.45;;;;;;;15.20;33.28;101021.56;3540823;40;20452;-72
2021/05/01 07:14:52;;;;;;;12.20;9.52;;;;;;;15.14;32.83;101025.81;3544129;40;20058;-72
2021/05/01 07:17:20;;;;;;;13.00;9.57;;;;;;;15.10;32.79;101026.28;3543033;40;20062;-73
2021/05/01 07:19:47;;;;;;;12.85;10.13;;;;;;;15.03;32.70;101018.66;3541198;40;20108;-72
2021/05/01 07:22:14;;;;;;;12.20;9.77;;;;;;;14.99;32.42;101014.47;3542184;40;20072;-72
2021/05/01 07:24:42;;;;;;;11.65;9.02;;;;;;;14.96;32.34;101020.31;3539706;40;20129;-73
2021/05/01 07:27:14;;;;;;;11.43;8.82;;;;;;;14.95;31.96;101020.44;3528434;40;20413;-73
2021/05/01 07:29:44;;;;;;;10.13;7.47;;;;;;;14.90;32.32;101009.88;3537633;40;20054;-73
2021/05/01 07:32:16;;;;;;;10.65;8.05;;;;;;;14.89;31.42;101013.69;3539862;40;20164;-74
2021/05/01 07:34:50;;;;;;;11.65;8.45;;;;;;;14.87;31.59;101012.97;3537013;40;20420;-73
2021/05/01 07:37:21;;;;;;;11.20;7.82;;;;;;;14.88;31.50;101013.84;3539053;40;20293;-73
2021/05/01 07:39:51;;;;;;;11.60;8.63;;;;;;;14.86;31.88;101011.25;3538202;40;20056;-73
2021/05/01 07:42:21;;;;;;;9.27;7.43;;;;;;;14.88;31.71;101022.09;3538258;40;20042;-74
2021/05/01 07:45:00;;;;;;;11.13;7.90;;;;;;;14.88;31.53;101011.97;3531477;40;20050;-74
2021/05/01 07:47:30;;;;;;;9.48;7.53;;;;;;;14.87;31.54;101012.97;3538309;40;20289;-73
2021/05/01 07:49:59;;;;;;;10.20;7.57;;;;;;;14.88;31.08;101009.22;3539793;40;20123;-73
2021/05/01 07:52:30;;;;;;;10.52;7.47;;;;;;;14.87;31.07;101007.47;3540116;40;20383;-73
2021/05/01 07:54:58;;;;;;;10.25;7.28;;;;;;;14.88;31.48;101005.59;3544154;40;20062;-73
2021/05/01 07:57:26;;;;;;;10.45;7.93;;;;;;;14.91;31.36;100999.75;3538885;40;20065;-73
2021/05/01 07:59:53;;;;;;;10.38;7.22;;;;;;;14.90;31.22;100996.13;3540410;40;20303;-73
2021/05/01 08:02:20;;;;;;;9.40;6.80;;;;;;;14.91;30.84;101005.25;3535264;40;20081;-73
2021/05/01 08:05:09;;;;;;;9.05;6.35;;;;;;;14.92;31.37;100995.97;3536486;40;20043;-73
2021/05/01 08:07:38;;;;;;;8.00;5.80;;;;;;;14.93;30.90;100997.69;3537190;40;20053;-73
2021/05/01 08:10:07;;;;;;;10.70;7.10;;;;;;;14.96;31.01;101008.41;3538438;40;20316;-73
2021/05/01 08:12:36;;;;;;;10.60;6.50;;;;;;;14.98;30.88;101009.13;3538299;40;20057;-73
2021/05/01 08:15:05;;;;;;;10.73;7.72;;;;;;;14.99;30.63;101014.47;3531566;40;20059;-73
2021/05/01 08:17:33;;;;;;;9.88;7.88;;;;;;;15.02;31.01;101011.41;3535777;40;20276;-73
2021/05/01 08:20:00;;;;;;;11.00;8.20;;;;;;;15.05;30.80;101022.13;3543439;40;20341;-73
2021/05/01 08:22:30;;;;;;;11.25;8.88;;;;;;;15.10;30.60;101021.63;3536558;40;20120;-73
2021/05/01 08:24:57;;;;;;;10.85;8.48;;;;;;;15.12;30.50;101018.72;3540448;40;20089;-73
2021/05/01 08:27:25;;;;;;;9.23;7.20;;;;;;;15.15;30.70;101019.25;3538949;40;20086;-73
2021/05/01 08:29:56;;;;;;;10.07;7.78;;;;;;;15.22;29.49;101020.38;3536039;40;20058;-73
2021/05/01 08:32:23;;;;;;;11.30;7.90;;;;;;;15.23;30.13;101022.06;3533591;40;20071;-73
2021/05/01 08:34:52;;;;;;;12.15;9.65;;;;;;;15.29;30.17;101017.84;3539054;40;20061;-73
2021/05/01 08:37:19;;;;;;;11.55;8.73;;;;;;;15.32;29.84;101018.38;3536550;40;20419;-73
2021/05/01 08:39:47;;;;;;;11.45;8.88;;;;;;;15.38;30.11;101011.38;3540080;40;20137;-73
2021/05/01 08:42:14;;;;;;;9.13;7.47;;;;;;;15.40;29.53;101010.16;3535596;40;20047;-73
2021/05/01 08:44:43;;;;;;;11.35;8.63;;;;;;;15.45;30.02;101006.94;3535752;40;20058;-73
2021/05/01 08:47:11;;;;;;;11.93;8.18;;;;;;;15.49;29.46;101011.09;3534675;40;20055;-73
2021/05/01 08:49:42;;;;;;;10.93;8.52;;;;;;;15.52;29.43;101019.06;3536430;40;20058;-74
2021/05/01 08:52:11;;;;;;;10.65;8.18;;;;;;;15.55;29.33;101012.38;3536364;40;20074;-73
2021/05/01 08:54:46;;;;;;;10.13;8.07;;;;;;;15.61;29.08;101020.00;3528883;40;20051;-73
2021/05/01 08:57:25;;;;;;;10.80;8.50;;;;;;;15.63;28.29;101016.06;3538313;40;20067;-73
2021/05/01 08:59:53;;;;;;;10.82;8.13;;;;;;;15.62;28.61;101014.31;3537592;40;20076;-73
2021/05/01 09:02:28;;;;;;;10.30;7.47;;;;;;;15.67;27.95;101011.97;3536467;40;20062;-73
2021/05/01 09:04:57;;;;;;;10.68;8.27;;;;;;;15.63;28.36;101021.56;3536417;40;20062;-73
2021/05/01 09:07:34;;;;;;;11.85;8.50;;;;;;;15.66;28.35;101024.00;3530276;40;20043;-73
2021/05/01 09:10:27;;;;;;;9.45;7.45;;;;;;;15.65;28.52;101021.41;3547756;40;20062;-73
2021/05/01 09:13:19;;;;;;;9.38;7.03;;;;;;;15.71;28.01;101015.28;3539842;40;20046;-73
2021/05/01 09:15:56;;;;;;;9.73;6.88;;;;;;;15.73;27.63;101014.06;3540978;40;20149;-74
2021/05/01 09:18:42;;;;;;;8.70;6.95;;;;;;;15.77;27.81;101022.88;3540426;40;20392;-74
2021/05/01 09:21:21;;;;;;;9.07;6.05;;;;;;;15.77;28.13;101015.47;3538019;40;20073;-74
2021/05/01 09:23:53;;;;;;;9.27;6.70;;;;;;;15.80;27.63;101011.53;3542394;40;20050;-73
2021/05/01 09:26:36;;;;;;;8.55;6.82;;;;;;;15.86;26.86;101015.53;3528728;40;20055;-73
2021/05/01 09:29:09;;;;;;;10.57;7.28;;;;;;;15.87;27.95;101011.75;3539608;40;20059;-73
2021/05/01 09:31:52;;;;;;;8.40;6.80;;;;;;;15.90;26.51;101015.03;3535010;40;20063;-74
2021/05/01 09:34:57;;;;;;;8.07;6.38;;;;;;;15.92;26.36;101021.25;3536852;40;20050;-74
2021/05/01 09:37:31;;;;;;;7.95;6.38;;;;;;;15.97;26.77;101016.09;3545467;40;20054;-73
2021/05/01 09:40:07;;;;;;;8.98;7.10;;;;;;;15.98;26.84;101020.59;3540938;40;20046;-73
2021/05/01 09:42:43;;;;;;;9.02;6.55;;;;;;;16.00;26.83;101018.53;3536892;40;20356;-73
2021/05/01 09:45:18;;;;;;;10.55;7.80;;;;;;;16.07;26.17;101018.75;3534664;40;20086;-73
2021/05/01 09:47:53;;;;;;;8.30;6.57;;;;;;;16.10;25.87;101019.28;3542576;40;20051;-73
2021/05/01 09:50:27;;;;;;;9.23;6.28;;;;;;;16.13;26.48;101015.34;3538825;40;20050;-74
2021/05/01 09:53:02;;;;;;;8.98;7.25;;;;;;;16.20;26.17;101008.13;3538144;40;20058;-73
2021/05/01 09:55:44;;;;;;;7.30;5.78;;;;;;;16.22;25.67;101011.56;3538432;40;20054;-73
2021/05/01 09:58:17;;;;;;;6.78;5.20;;;;;;;16.23;25.47;101020.72;3544907;40;20058;-73
2021/05/01 10:00:46;;;;;;;6.28;4.72;;;;;;;16.24;26.04;101009.50;3543640;40;20091;-73
2021/05/01 10:03:27;;;;;;;6.82;5.13;;;;;;;16.28;24.90;101010.06;3538368;40;20293;-73
2021/05/01 10:05:59;;;;;;;8.10;5.40;;;;;;;16.27;25.35;101014.72;3535641;40;20050;-73
2021/05/01 10:08:29;;;;;;;7.40;5.47;;;;;;;16.26;25.29;101009.34;3534411;40;20046;-72
2021/05/01 10:10:58;;;;;;;6.80;5.05;;;;;;;16.27;25.27;101009.19;3539548;40;20436;-73
2021/05/01 10:13:49;;;;;;;7.35;5.20;;;;;;;16.27;24.54;101000.91;3540432;40;20112;-73
2021/05/01 10:16:17;;;;;;;6.93;5.38;;;;;;;16.25;25.44;101008.50;3536847;40;20312;-73
2021/05/01 10:19:03;;;;;;;7.25;5.68;;;;;;;16.29;25.16;101011.78;3540034;40;20085;-73
2021/05/01 10:21:32;;;;;;;7.15;5.57;;;;;;;16.29;25.65;101012.66;3540840;40;20065;-73
2021/05/01 10:23:59;;;;;;;7.25;5.43;;;;;;;16.30;25.22;101010.78;3536934;40;20404;-73
2021/05/01 10:26:41;;;;;;;6.78;5.38;;;;;;;16.35;24.27;101006.47;3542007;40;20059;-74
2021/05/01 10:29:09;;;;;;;7.95;5.70;;;;;;;16.33;25.49;101014.03;3540877;40;20054;-74
2021/05/01 10:31:52;;;;;;;7.10;5.68;;;;;;;16.38;24.35;101008.91;3544233;40;20067;-73
2021/05/01 10:34:22;;;;;;;7.93;6.38;;;;;;;16.38;24.96;101005.28;3544010;40;20110;-73
2021/05/01 10:36:54;;;;;;;8.10;5.78;;;;;;;16.36;24.53;101007.34;3539872;40;20050;-73
2021/05/01 10:39:25;;;;;;;8.27;6.20;;;;;;;16.33;25.23;101004.91;3542227;40;20062;-73
2021/05/01 10:41:57;;;;;;;7.40;6.28;;;;;;;16.33;24.43;101014.03;3543195;40;20133;-73
2021/05/01 10:44:25;;;;;;;7.72;5.88;;;;;;;16.24;24.67;101008.66;3532003;40;20055;-74
2021/05/01 10:47:10;;;;;;;6.43;5.07;;;;;;;16.24;23.96;101003.13;3537122;40;20303;-73
2021/05/01 10:50:01;;;;;;;6.40;5.00;;;;;;;16.16;25.05;101007.59;3537739;40;20050;-74
2021/05/01 10:52:37;;;;;;;7.32;5.47;;;;;;;16.18;23.90;101000.00;3542899;40;20392;-73
2021/05/01 10:55:06;;;;;;;7.32;5.13;;;;;;;16.14;24.38;101009.63;3539109;40;20425;-73
2021/05/01 10:57:35;;;;;;;6.47;5.20;;;;;;;16.12;24.79;100991.53;3542030;40;20115;-74
2021/05/01 11:00:07;;;;;;;6.22;4.82;;;;;;;16.11;24.61;100992.56;3536152;40;20027;-73
2021/05/01 11:02:37;;;;;;;6.80;4.65;;;;;;;16.12;24.41;100986.88;3538770;40;20086;-73
2021/05/01 11:05:09;;;;;;;5.65;4.85;;;;;;;16.14;24.68;100997.72;3542745;40;20054;-73
2021/05/01 11:07:50;;;;;;;7.85;5.30;;;;;;;16.17;23.83;100998.28;3541544;40;20402;-73
2021/05/01 11:10:20;;;;;;;5.97;4.50;;;;;;;16.19;25.16;101001.75;3542589;40;20046;-73
2021/05/01 11:12:51;;;;;;;6.45;4.57;;;;;;;16.27;24.35;101000.91;3538678;40;20046;-73
2021/05/01 11:15:21;;;;;;;5.95;4.40;;;;;;;16.29;24.47;101000.75;3541227;40;20319;-72
2021/05/01 11:18:00;;;;;;;6.40;4.70;;;;;;;16.34;23.76;101004.72;3539621;40;20352;-73
2021/05/01 11:20:30;;;;;;;5.82;4.50;;;;;;;16.34;23.82;100992.81;3543896;40;20054;-73
2021/05/01 11:22:59;;;;;;;5.80;4.25;;;;;;;16.36;24.17;100988.00;3538754;40;20058;-73
2021/05/01 11:25:28;;;;;;;6.07;4.43;;;;;;;16.34;24.04;100987.31;3539512;40;20090;-73
2021/05/01 11:27:57;;;;;;;5.53;4.13;;;;;;;16.33;23.72;100989.19;3542050;40;20090;-72
2021/05/01 11:30:26;;;;;;;5.65;4.18;;;;;;;16.31;23.65;100988.50;3538540;40;20051;-72